Terminal Aerodrome Forecast
Issued by NWS Amarillo, TX

Home | Current Version | Previous Version | Text Only | Print | Product List | Glossary On
Versions: 1 2 3 4 5 6 7 8 9 10 11 12 13 14 15 16 17 18 19 20 21
000
FTUS44 KAMA 040300 AAC
TAFAMA
TAF AMD
KAMA 040301Z 0403/0424 06016KT P6SM VCTS SCT070CB BKN110
      TEMPO 0403/0405 5SM -TSRA BR BKN040CB
     FM040500 15010KT P6SM BKN070 OVC200
     FM041400 19011KT P6SM FEW070 SCT200
     FM042000 18015G25KT P6SM SCT080 BKN200=

USA.gov is the U.S. government's official web portal to all federal, state and local government web resources and services.